createdAt,value
2019-05-30T00:01:13.391Z,57.70
2019-05-30T00:03:42.216Z,57.80
2019-05-30T00:06:11.770Z,57.90
2019-05-30T00:08:40.579Z,57.70
2019-05-30T00:11:09.494Z,58.00
2019-05-30T00:13:38.321Z,57.30
2019-05-30T00:16:07.228Z,56.70
2019-05-30T00:18:36.372Z,56.50
2019-05-30T00:21:05.277Z,55.90
2019-05-30T00:23:34.434Z,55.80
2019-05-30T00:26:03.445Z,54.90
2019-05-30T00:28:32.327Z,55.70
2019-05-30T00:31:20.336Z,55.00
2019-05-30T00:33:49.195Z,55.30
2019-05-30T00:36:37.236Z,55.20
2019-05-30T00:39:06.936Z,55.80
2019-05-30T00:41:35.803Z,56.00
2019-05-30T00:44:06.166Z,55.70
2019-05-30T00:46:35.215Z,55.90
2019-05-30T00:49:04.560Z,55.50
2019-05-30T00:51:33.847Z,55.90
2019-05-30T00:54:02.916Z,55.80
2019-05-30T00:56:31.937Z,55.90
2019-05-30T00:59:19.960Z,55.90
2019-05-30T01:01:48.783Z,56.00
2019-05-30T01:04:17.676Z,57.00
2019-05-30T01:06:46.481Z,58.40
2019-05-30T01:09:15.437Z,59.10
2019-05-30T01:11:44.246Z,58.60
2019-05-30T01:14:13.299Z,59.00
2019-05-30T01:16:42.796Z,59.00
2019-05-30T01:19:11.819Z,59.60
2019-05-30T01:21:40.694Z,60.10
2019-05-30T01:24:09.683Z,60.10
2019-05-30T01:26:38.579Z,60.80
2019-05-30T01:29:07.839Z,59.80
2019-05-30T01:31:36.759Z,59.80
2019-05-30T01:34:06.130Z,59.20
2019-05-30T01:36:34.956Z,59.10
2019-05-30T01:39:05.901Z,58.70
2019-05-30T01:41:34.733Z,57.80
2019-05-30T01:44:04.115Z,57.50
2019-05-30T01:46:32.996Z,57.80
2019-05-30T01:49:02.323Z,58.00
2019-05-30T01:51:31.329Z,59.00
2019-05-30T01:54:00.509Z,58.50
2019-05-30T01:56:29.579Z,58.00
2019-05-30T01:58:58.675Z,57.90
2019-05-30T02:01:27.615Z,56.70
2019-05-30T02:03:56.422Z,56.80
2019-05-30T02:06:25.238Z,57.30
2019-05-30T02:08:54.147Z,56.40
2019-05-30T02:11:23.799Z,55.80
2019-05-30T02:13:52.697Z,55.50
2019-05-30T02:16:21.568Z,55.80
2019-05-30T02:18:50.372Z,55.30
2019-05-30T02:21:19.199Z,54.30
2019-05-30T02:23:48.014Z,56.00
2019-05-30T02:26:17.194Z,55.00
2019-05-30T02:28:46.032Z,55.10
2019-05-30T02:31:15.189Z,56.60
2019-05-30T02:33:44.007Z,56.00
2019-05-30T02:36:13.038Z,56.20
2019-05-30T02:38:42.169Z,57.60
2019-05-30T02:41:12.478Z,59.50
2019-05-30T02:43:41.850Z,59.40
2019-05-30T02:46:12.575Z,58.00
2019-05-30T02:48:58.144Z,58.70
2019-05-30T02:51:12.825Z,57.80
2019-05-30T02:53:41.875Z,58.30
2019-05-30T02:56:12.691Z,58.10
2019-05-30T02:58:41.793Z,57.60
2019-05-30T03:01:11.960Z,58.10
2019-05-30T03:03:41.535Z,57.50
2019-05-30T03:06:13.095Z,58.80
2019-05-30T03:08:41.245Z,59.80
2019-05-30T03:11:13.565Z,59.80
2019-05-30T03:13:41.120Z,59.50
2019-05-30T03:16:11.849Z,59.50
2019-05-30T03:18:40.757Z,59.80
2019-05-30T03:21:13.003Z,61.60
2019-05-30T03:23:41.155Z,61.60
2019-05-30T03:26:12.932Z,60.40
2019-05-30T03:28:40.808Z,61.60
2019-05-30T03:31:25.843Z,61.50
2019-05-30T03:33:42.777Z,61.80
2019-05-30T03:36:23.878Z,62.00
2019-05-30T03:38:43.450Z,61.40
2019-05-30T03:41:12.476Z,61.50
2019-05-30T03:43:41.677Z,60.50
2019-05-30T03:46:15.169Z,59.90
2019-05-30T03:48:46.921Z,59.60
2019-05-30T03:51:17.980Z,59.60
2019-05-30T03:53:47.214Z,61.50
2019-05-30T03:56:19.623Z,60.60
2019-05-30T03:59:05.770Z,60.00
2019-05-30T04:01:43.053Z,61.00
2019-05-30T04:04:17.017Z,62.50
2019-05-30T04:06:50.114Z,68.40
2019-05-30T04:09:24.681Z,71.90
2019-05-30T04:12:03.999Z,81.30
2019-05-30T04:14:36.249Z,83.10
2019-05-30T04:17:05.185Z,91.10
2019-05-30T04:19:34.035Z,91.30
2019-05-30T04:22:02.858Z,91.30
2019-05-30T04:24:31.734Z,90.80
2019-05-30T04:27:00.536Z,90.70
2019-05-30T04:29:29.403Z,88.20
2019-05-30T04:31:58.814Z,90.10
2019-05-30T04:34:27.642Z,90.20
2019-05-30T04:36:56.600Z,88.40
2019-05-30T04:42:00.943Z,87.70
2019-05-30T04:44:30.112Z,89.30
2019-05-30T04:46:58.965Z,85.20
2019-05-30T04:49:27.756Z,81.40
2019-05-30T04:51:56.588Z,80.90
2019-05-30T04:54:25.856Z,83.60
2019-05-30T04:59:29.911Z,80.70
2019-05-30T05:01:58.736Z,81.30
2019-05-30T05:04:27.526Z,79.30
2019-05-30T05:06:56.323Z,75.90
2019-05-30T05:09:25.118Z,77.80
2019-05-30T05:11:53.956Z,76.40
2019-05-30T05:14:22.895Z,77.30
2019-05-30T05:16:51.871Z,76.90
2019-05-30T05:19:25.429Z,77.40
2019-05-30T05:21:52.660Z,74.70
2019-05-30T05:24:22.004Z,76.20
2019-05-30T05:26:50.811Z,77.40
2019-05-30T05:29:19.943Z,75.80
2019-05-30T05:31:49.060Z,74.40
2019-05-30T05:34:18.536Z,76.70
2019-05-30T05:36:47.434Z,76.10
2019-05-30T05:39:16.475Z,73.90
2019-05-30T05:41:45.320Z,72.30
2019-05-30T05:44:16.136Z,72.70
2019-05-30T05:46:45.094Z,70.20
2019-05-30T05:49:14.016Z,69.80
2019-05-30T05:51:42.823Z,69.10
2019-05-30T05:54:12.070Z,70.50
2019-05-30T05:56:41.239Z,69.20
2019-05-30T05:59:10.338Z,67.50
2019-05-30T06:01:39.495Z,65.90
2019-05-30T06:04:12.973Z,66.40
2019-05-30T06:06:39.437Z,66.40
2019-05-30T06:09:08.678Z,64.80
2019-05-30T06:11:37.556Z,63.30
2019-05-30T06:14:06.572Z,62.10
2019-05-30T06:16:35.749Z,61.20
2019-05-30T06:19:05.020Z,60.80
2019-05-30T06:21:34.489Z,60.90
2019-05-30T06:24:03.361Z,60.80
2019-05-30T06:29:06.757Z,61.50
2019-05-30T06:31:35.556Z,60.50
2019-05-30T06:34:04.540Z,60.00
2019-05-30T06:36:33.712Z,60.90
2019-05-30T06:39:02.611Z,60.90
2019-05-30T06:41:31.421Z,60.30
2019-05-30T06:44:00.259Z,60.50
2019-05-30T06:46:30.460Z,60.50
2019-05-30T06:49:00.128Z,60.00
2019-05-30T06:51:29.176Z,60.30
2019-05-30T06:53:58.098Z,60.00
2019-05-30T06:56:27.496Z,59.00
2019-05-30T06:58:56.521Z,58.50
2019-05-30T07:01:25.830Z,56.80
2019-05-30T07:03:54.832Z,55.70
2019-05-30T07:06:25.397Z,53.70
2019-05-30T07:08:54.727Z,54.20
2019-05-30T07:11:24.665Z,55.30
2019-05-30T07:13:53.755Z,55.40
2019-05-30T07:16:23.365Z,54.50
2019-05-30T07:18:52.369Z,54.10
2019-05-30T07:21:21.311Z,53.40
2019-05-30T07:23:50.515Z,52.70
2019-05-30T07:26:19.344Z,52.70
2019-05-30T07:28:48.148Z,53.20
2019-05-30T07:31:16.953Z,53.80
2019-05-30T07:33:45.780Z,52.90
2019-05-30T07:36:14.678Z,52.70
2019-05-30T07:38:43.751Z,53.00
2019-05-30T07:41:12.743Z,52.80
2019-05-30T07:43:41.564Z,52.70
2019-05-30T07:46:10.880Z,52.70
2019-05-30T07:48:40.977Z,52.70
2019-05-30T07:51:09.935Z,52.90
2019-05-30T07:53:39.183Z,51.60
2019-05-30T07:56:08.273Z,50.60
2019-05-30T07:58:37.413Z,50.10
2019-05-30T08:01:06.445Z,50.40
2019-05-30T08:03:35.242Z,50.90
2019-05-30T08:06:04.452Z,52.10
2019-05-30T08:08:33.946Z,53.00
2019-05-30T08:11:09.436Z,52.50
2019-05-30T08:13:33.824Z,53.10
2019-05-30T08:16:02.638Z,53.00
2019-05-30T08:18:31.682Z,53.00
2019-05-30T08:21:00.572Z,53.00
2019-05-30T08:23:30.140Z,53.10
2019-05-30T08:25:59.078Z,52.10
2019-05-30T08:28:28.811Z,52.80
2019-05-30T08:30:58.087Z,51.90
2019-05-30T08:33:27.624Z,49.80
2019-05-30T08:35:56.435Z,50.40
2019-05-30T08:38:25.248Z,49.50
2019-05-30T08:40:54.080Z,48.30
2019-05-30T08:43:22.864Z,46.60
2019-05-30T08:45:51.753Z,44.30
2019-05-30T08:48:20.644Z,45.10
2019-05-30T08:50:49.515Z,42.40
2019-05-30T08:53:18.493Z,42.80
2019-05-30T08:55:47.863Z,43.40
2019-05-30T08:58:16.698Z,43.00
2019-05-30T09:00:45.976Z,43.70
2019-05-30T09:03:14.875Z,43.00
2019-05-30T09:05:59.330Z,43.00
2019-05-30T09:08:14.436Z,42.70
2019-05-30T09:10:44.425Z,43.10
2019-05-30T09:13:13.342Z,43.10
2019-05-30T09:15:42.998Z,42.80
2019-05-30T09:18:12.063Z,43.10
2019-05-30T09:20:41.948Z,43.80
2019-05-30T09:23:11.338Z,41.30
2019-05-30T09:25:41.432Z,42.80
2019-05-30T09:28:10.427Z,43.20
2019-05-30T09:30:41.146Z,43.40
2019-05-30T09:33:11.130Z,43.30
2019-05-30T09:35:41.347Z,44.50
2019-05-30T09:38:10.391Z,44.20
2019-05-30T09:40:40.858Z,45.70
2019-05-30T09:43:10.506Z,46.60
2019-05-30T09:45:39.595Z,48.80
2019-05-30T09:48:09.641Z,47.80
2019-05-30T09:50:38.478Z,49.20
2019-05-30T09:53:07.513Z,49.20
2019-05-30T09:55:36.391Z,50.20
2019-05-30T09:58:05.479Z,50.00
2019-05-30T10:00:34.550Z,49.50
2019-05-30T10:03:03.528Z,50.90
2019-05-30T10:05:32.481Z,52.50
2019-05-30T10:08:01.288Z,53.60
2019-05-30T10:10:30.306Z,54.00
2019-05-30T10:12:59.366Z,53.90
2019-05-30T10:15:28.359Z,53.90
2019-05-30T10:17:57.301Z,54.60
2019-05-30T10:20:27.764Z,54.70
2019-05-30T10:22:57.361Z,56.50
2019-05-30T10:25:26.641Z,55.60
2019-05-30T10:27:55.471Z,56.80
2019-05-30T10:30:25.095Z,56.50
2019-05-30T10:32:54.132Z,56.90
2019-05-30T10:35:24.280Z,56.00
2019-05-30T10:37:53.091Z,55.60
2019-05-30T10:40:22.136Z,55.90
2019-05-30T10:42:52.760Z,55.20
2019-05-30T10:45:22.811Z,53.90
2019-05-30T10:47:53.512Z,54.20
2019-05-30T10:50:23.123Z,53.50
2019-05-30T10:52:53.463Z,52.60
2019-05-30T10:55:23.164Z,50.10
2019-05-30T10:57:55.352Z,49.00
2019-05-30T11:00:25.856Z,48.70
2019-05-30T11:02:55.027Z,50.50
2019-05-30T11:05:24.271Z,51.10
2019-05-30T11:08:06.454Z,51.20
2019-05-30T11:10:38.122Z,52.00
2019-05-30T11:13:08.852Z,55.10
2019-05-30T11:15:37.936Z,55.80
2019-05-30T11:18:06.928Z,57.30
2019-05-30T11:20:35.897Z,56.30
2019-05-30T11:23:05.754Z,55.60
2019-05-30T11:25:34.711Z,56.50
2019-05-30T11:28:03.806Z,57.30
2019-05-30T11:30:33.144Z,56.00
2019-05-30T11:33:02.451Z,55.90
2019-05-30T11:35:31.888Z,56.30
2019-05-30T11:38:00.819Z,55.50
2019-05-30T11:40:29.787Z,54.70
2019-05-30T11:42:59.929Z,54.40
2019-05-30T11:45:29.300Z,54.00
2019-05-30T11:47:58.226Z,54.10
2019-05-30T11:50:27.860Z,55.00
2019-05-30T11:52:57.951Z,54.90
2019-05-30T11:55:27.161Z,55.90
2019-05-30T11:57:56.278Z,55.60
2019-05-30T12:00:27.001Z,55.40
2019-05-30T12:02:56.486Z,56.40
2019-05-30T12:05:26.461Z,57.40
2019-05-30T12:07:56.845Z,58.30
2019-05-30T12:10:26.766Z,58.90
2019-05-30T12:12:55.559Z,60.40
2019-05-30T12:15:24.510Z,60.60
2019-05-30T12:17:53.421Z,59.60
2019-05-30T12:20:22.664Z,60.50
2019-05-30T12:22:51.840Z,61.30
2019-05-30T12:25:21.548Z,59.80
2019-05-30T12:27:50.349Z,59.90
2019-05-30T12:30:21.136Z,61.10
2019-05-30T12:32:50.284Z,61.70
2019-05-30T12:35:19.725Z,63.10
2019-05-30T12:37:54.789Z,61.40
2019-05-30T12:40:19.839Z,63.00
2019-05-30T12:42:48.752Z,63.10
2019-05-30T12:45:18.313Z,62.70
2019-05-30T12:47:47.406Z,62.20
2019-05-30T12:50:17.171Z,60.70
2019-05-30T12:52:46.011Z,62.20
2019-05-30T12:55:15.166Z,62.70
2019-05-30T12:57:44.055Z,62.30
2019-05-30T13:00:18.303Z,61.40
2019-05-30T13:02:44.652Z,61.00
2019-05-30T13:05:13.900Z,61.90
2019-05-30T13:07:42.794Z,62.70
2019-05-30T13:10:12.184Z,62.30
2019-05-30T13:12:41.025Z,61.40
2019-05-30T13:15:10.508Z,61.90
2019-05-30T13:17:39.391Z,61.70
2019-05-30T13:20:09.382Z,61.20
2019-05-30T13:22:39.047Z,61.40
2019-05-30T13:25:08.449Z,61.30
2019-05-30T13:27:37.405Z,62.90
2019-05-30T13:30:06.940Z,72.40
2019-05-30T13:32:36.250Z,81.70
2019-05-30T13:35:07.508Z,85.60
2019-05-30T13:37:36.696Z,89.30
2019-05-30T13:40:23.618Z,90.90
2019-05-30T13:42:37.663Z,87.70
2019-05-30T13:45:08.195Z,90.20
2019-05-30T13:47:37.986Z,90.40
2019-05-30T13:50:12.706Z,90.80
2019-05-30T13:52:39.565Z,87.00
2019-05-30T13:55:10.271Z,90.50
2019-05-30T13:57:39.293Z,90.10
2019-05-30T14:00:08.839Z,89.80
2019-05-30T14:02:37.711Z,88.80
2019-05-30T14:05:08.294Z,87.00
2019-05-30T14:07:37.263Z,86.90
2019-05-30T14:10:08.663Z,89.80
2019-05-30T14:12:38.161Z,85.40
2019-05-30T14:15:10.496Z,87.10
2019-05-30T14:17:38.644Z,85.90
2019-05-30T14:20:09.520Z,86.40
2019-05-30T14:22:38.463Z,86.20
2019-05-30T14:25:08.020Z,86.80
2019-05-30T14:27:36.977Z,85.30
2019-05-30T14:30:06.671Z,85.10
2019-05-30T14:32:35.714Z,85.30
2019-05-30T14:35:06.427Z,85.30
2019-05-30T14:37:35.534Z,83.40
2019-05-30T14:40:06.413Z,84.00
2019-05-30T14:42:35.641Z,83.60
2019-05-30T14:45:06.401Z,81.30
2019-05-30T14:47:35.744Z,82.20
2019-05-30T14:50:06.599Z,78.70
2019-05-30T14:52:35.728Z,75.10
2019-05-30T14:55:05.287Z,72.60
2019-05-30T14:57:34.192Z,72.20
2019-05-30T15:00:03.128Z,69.20
2019-05-30T15:02:31.948Z,69.00
2019-05-30T15:05:00.825Z,67.50
2019-05-30T15:07:29.645Z,67.10
2019-05-30T15:09:58.444Z,66.90
2019-05-30T15:12:27.400Z,62.40
2019-05-30T15:14:56.613Z,63.00
2019-05-30T15:17:25.461Z,64.50
2019-05-30T15:19:54.255Z,65.60
2019-05-30T15:22:23.092Z,65.20
2019-05-30T15:24:51.912Z,61.90
2019-05-30T15:27:20.979Z,60.90
2019-05-30T15:29:49.907Z,60.00
2019-05-30T15:32:18.773Z,58.20
2019-05-30T15:34:47.948Z,55.80
2019-05-30T15:37:17.069Z,53.40
2019-05-30T15:39:46.160Z,52.20
2019-05-30T15:42:15.435Z,52.70
2019-05-30T15:44:44.724Z,53.90
2019-05-30T15:47:14.480Z,53.90
2019-05-30T15:49:43.587Z,54.10
2019-05-30T15:52:13.331Z,54.40
2019-05-30T15:54:42.359Z,53.90
2019-05-30T15:57:11.206Z,54.00
2019-05-30T15:59:40.048Z,54.70
2019-05-30T16:02:09.902Z,54.80
2019-05-30T16:04:38.764Z,55.50
2019-05-30T16:07:07.662Z,56.50
2019-05-30T16:09:46.678Z,56.60
2019-05-30T16:12:07.134Z,55.60
2019-05-30T16:14:35.947Z,56.80
2019-05-30T16:17:13.851Z,56.10
2019-05-30T16:19:42.883Z,57.30
2019-05-30T16:22:12.276Z,58.80
2019-05-30T16:24:41.376Z,58.80
2019-05-30T16:27:10.415Z,59.30
2019-05-30T16:29:39.243Z,58.80
2019-05-30T16:32:08.128Z,59.40
2019-05-30T16:34:37.300Z,58.60
2019-05-30T16:37:06.845Z,58.00
2019-05-30T16:39:35.650Z,58.30
2019-05-30T16:42:04.921Z,58.40
2019-05-30T16:44:33.727Z,59.20
2019-05-30T16:47:02.551Z,58.70
2019-05-30T16:49:31.347Z,57.80
2019-05-30T16:52:00.339Z,57.80
2019-05-30T16:54:32.750Z,57.90
2019-05-30T16:57:02.234Z,58.30
2019-05-30T16:59:31.061Z,58.60
2019-05-30T17:01:59.981Z,59.00
2019-05-30T17:04:28.835Z,58.50
2019-05-30T17:06:57.854Z,56.70
2019-05-30T17:09:27.681Z,56.10
2019-05-30T17:11:56.791Z,57.50
2019-05-30T17:14:25.954Z,57.60
2019-05-30T17:16:55.146Z,56.90
2019-05-30T17:19:24.531Z,56.70
2019-05-30T17:21:53.631Z,56.10
2019-05-30T17:24:22.994Z,55.90
2019-05-30T17:26:52.178Z,54.40
2019-05-30T17:29:21.544Z,54.10
2019-05-30T17:31:50.703Z,52.10
2019-05-30T17:34:19.914Z,51.70
2019-05-30T17:36:48.841Z,51.10
2019-05-30T17:39:18.903Z,50.70
2019-05-30T17:41:48.086Z,51.90
2019-05-30T17:44:16.973Z,52.00
2019-05-30T17:46:46.396Z,51.10
2019-05-30T17:49:15.284Z,48.60
2019-05-30T17:51:44.533Z,48.30
2019-05-30T17:54:14.087Z,47.90
2019-05-30T17:56:43.000Z,47.90
2019-05-30T17:59:12.084Z,48.10
2019-05-30T18:01:40.971Z,48.10
2019-05-30T18:04:10.007Z,47.90
2019-05-30T18:06:38.838Z,48.50
2019-05-30T18:09:07.898Z,48.00
2019-05-30T18:11:36.847Z,47.40
2019-05-30T18:14:06.167Z,42.90
2019-05-30T18:16:35.072Z,39.20
2019-05-30T18:19:04.435Z,38.60
2019-05-30T18:21:33.316Z,37.10
2019-05-30T18:24:02.752Z,37.20
2019-05-30T18:26:31.959Z,36.70
2019-05-30T18:29:00.988Z,35.00
2019-05-30T18:31:30.175Z,34.10
2019-05-30T18:33:59.538Z,32.30
2019-05-30T18:36:28.672Z,32.10
2019-05-30T18:38:57.669Z,35.10
2019-05-30T18:41:26.643Z,37.30
2019-05-30T18:43:55.736Z,37.20
2019-05-30T18:46:24.967Z,36.80
2019-05-30T18:48:54.317Z,37.20
2019-05-30T18:51:24.054Z,37.20
2019-05-30T18:53:53.332Z,41.80
2019-05-30T18:56:22.451Z,44.60
2019-05-30T18:58:51.281Z,47.40
2019-05-30T19:01:20.195Z,49.90
2019-05-30T19:03:49.092Z,50.90
2019-05-30T19:06:18.210Z,52.10
2019-05-30T19:08:47.463Z,53.90
2019-05-30T19:11:27.110Z,55.40
2019-05-30T19:13:47.513Z,56.20
2019-05-30T19:16:16.312Z,56.70
2019-05-30T19:18:45.324Z,57.20
2019-05-30T19:21:14.484Z,58.10
2019-05-30T19:23:43.656Z,58.80
2019-05-30T19:26:12.919Z,59.50
2019-05-30T19:28:42.085Z,60.70
2019-05-30T19:31:10.899Z,61.10
2019-05-30T19:33:39.759Z,62.30
2019-05-30T19:36:09.124Z,62.60
2019-05-30T19:38:37.952Z,63.70
2019-05-30T19:41:06.865Z,63.90
2019-05-30T19:43:36.029Z,64.20
2019-05-30T19:46:05.617Z,65.40
2019-05-30T19:48:34.808Z,65.40
2019-05-30T19:51:03.691Z,65.50
2019-05-30T19:53:32.942Z,65.90
2019-05-30T19:56:01.862Z,66.10
2019-05-30T19:58:31.558Z,66.90
2019-05-30T20:01:00.500Z,67.90
2019-05-30T20:03:38.598Z,68.50
2019-05-30T20:05:59.955Z,70.00
2019-05-30T20:08:44.874Z,71.80
2019-05-30T20:11:00.371Z,72.30
2019-05-30T20:13:29.200Z,73.70
2019-05-30T20:15:58.366Z,74.70
2019-05-30T20:18:27.206Z,76.40
2019-05-30T20:20:57.928Z,77.10
2019-05-30T20:23:26.616Z,77.10
2019-05-30T20:25:55.527Z,78.20
2019-05-30T20:28:25.157Z,79.60
2019-05-30T20:30:54.575Z,80.60
2019-05-30T20:33:23.938Z,81.10
2019-05-30T20:35:52.824Z,82.20
2019-05-30T20:38:21.818Z,81.50
2019-05-30T20:40:50.646Z,82.10
2019-05-30T20:43:19.516Z,82.90
2019-05-30T20:45:50.042Z,83.10
2019-05-30T20:48:18.974Z,84.30
2019-05-30T20:50:47.868Z,85.40
2019-05-30T20:53:20.172Z,86.50
2019-05-30T20:55:47.558Z,87.10
2019-05-30T20:58:16.450Z,88.00
2019-05-30T21:00:45.843Z,89.60
2019-05-30T21:03:14.760Z,90.20
2019-05-30T21:05:44.224Z,90.50
2019-05-30T21:08:14.521Z,90.80
2019-05-30T21:10:44.851Z,91.60
2019-05-30T21:13:13.816Z,92.00
2019-05-30T21:15:45.728Z,92.30
2019-05-30T21:18:14.935Z,92.50
2019-05-30T21:20:46.181Z,93.10
2019-05-30T21:23:15.455Z,93.40
2019-05-30T21:25:45.193Z,93.60
2019-05-30T21:28:14.150Z,93.60
2019-05-30T21:30:43.332Z,94.10
2019-05-30T21:33:12.614Z,94.50
2019-05-30T21:35:41.918Z,94.80
2019-05-30T21:38:11.047Z,94.90
2019-05-30T21:40:40.424Z,95.30
2019-05-30T21:43:09.319Z,95.40
2019-05-30T21:45:38.528Z,95.80
2019-05-30T21:48:07.922Z,95.90
2019-05-30T21:50:36.768Z,96.10
2019-05-30T21:53:05.574Z,96.30
2019-05-30T21:55:34.440Z,96.60
2019-05-30T21:58:03.359Z,97.20
2019-05-30T22:01:20.561Z,97.50
2019-05-30T22:03:50.893Z,97.60
2019-05-30T22:06:19.931Z,97.70
2019-05-30T22:09:08.652Z,97.90
2019-05-30T22:11:37.604Z,98.00
2019-05-30T22:14:07.204Z,98.10
2019-05-30T22:16:36.211Z,98.10
2019-05-30T22:19:05.861Z,98.00
2019-05-30T22:21:34.851Z,97.90
2019-05-30T22:24:03.832Z,98.10
2019-05-30T22:26:32.637Z,98.30
2019-05-30T22:29:01.437Z,98.80
2019-05-30T22:31:30.370Z,98.90
2019-05-30T22:33:59.419Z,98.90
2019-05-30T22:36:28.338Z,99.10
2019-05-30T22:38:57.217Z,99.40
2019-05-30T22:41:26.091Z,99.70
2019-05-30T22:43:54.944Z,99.90
2019-05-30T22:46:24.737Z,99.90
2019-05-30T22:48:53.603Z,99.90
2019-05-30T22:51:22.510Z,99.90
2019-05-30T22:53:51.583Z,99.90
2019-05-30T22:56:20.459Z,99.90
2019-05-30T22:58:50.159Z,99.90
2019-05-30T23:01:19.157Z,99.90
2019-05-30T23:03:49.070Z,99.90
2019-05-30T23:06:18.181Z,99.90
2019-05-30T23:08:48.426Z,99.90
2019-05-30T23:11:17.454Z,99.90
2019-05-30T23:13:46.371Z,99.90
2019-05-30T23:16:15.242Z,99.90
2019-05-30T23:18:44.255Z,99.90
2019-05-30T23:21:13.076Z,99.90
2019-05-30T23:23:41.932Z,99.90
2019-05-30T23:26:10.808Z,99.90
2019-05-30T23:28:39.615Z,99.90
2019-05-30T23:31:08.604Z,99.90
2019-05-30T23:33:37.423Z,99.90
2019-05-30T23:36:06.267Z,99.90
2019-05-30T23:38:35.451Z,99.90
2019-05-30T23:41:04.273Z,99.90
2019-05-30T23:43:33.496Z,99.90
2019-05-30T23:46:02.572Z,99.90
2019-05-30T23:48:31.423Z,99.90
2019-05-30T23:51:00.233Z,99.90
2019-05-30T23:53:29.028Z,99.90
2019-05-30T23:55:58.415Z,99.90
2019-05-30T23:58:27.402Z,99.90
